Simi Valley, CA

4:50 PM PDT on October 20, 2014 (GMT -0700)
Big Sky | Change Station
CLOSE
Current Station
Personal Weather Station
Location: Simi Valley, CA
Elevation: 1322 ft
Nearby Weather Stations

Elev 1322 ft 34.30 °N, 118.75 °W | Updated 4 seconds ago

Clear
Clear
73.6 °F
Feels Like 76 °F
N
9.8
Wind Variable Wind from NW
Gusts 9.8 mph

Today
High -- | Low -- °F
--% Chance of Precip.
Yesterday
High -- | Low -- °F
Precip. -- in
7:04 AM 6:14 PM
Waning Crescent, 8% visible
Pressure 29.91 in
Visibility 10.0 miles
Clouds Clear
Heat Index 76 °F
Dew Point 60 °F
Humidity 62%
Rainfall 0.00 in
Snow Depth Not available.
UV 2 out of 12
Pollen 3.50 out of 12
Air Quality Not available.
Flu Activity Not available.
METAR KCMA 202255Z 24010KT 10SM CLR 23/16 A2988 RMK AO2 SLP128 T02280156

More Conditions Fewer Conditions

Pressure 29.91 in
Visibility 10.0 miles
Clouds Clear
Heat Index 76 °F
Dew Point 60 °F
Humidity 62%
Rainfall 0.00 in
Snow Depth Not available.
UV 2 out of 12
Pollen 3.50 out of 12
Air Quality Not available.
Flu Activity Not available.
METAR KCMA 202255Z 24010KT 10SM CLR 23/16 A2988 RMK AO2 SLP128 T02280156

More Conditions Fewer Conditions

10-Day Weather Forecast

Almanac

Astronomy

Oct. 20, 2014 Rise Set
Actual Time 7:04 AM PDT 6:14 PM PDT
Civil Twilight 6:39 AM PDT 6:40 PM PDT
Nautical Twilight 6:09 AM PDT 7:09 PM PDT
Astronomical Twilight 5:40 AM PDT 7:38 PM PDT
Moon 4:05 AM PDT 4:33 PM PDT
Length of Visible Light 12h 00m
Length of Day
11h 10m
Tomorrow will be 2m 0s shorter.
Waning Crescent, 8% of the Moon is Illuminated
Today
Waning Crescent
Oct 23
New
Oct 30
First Quarter
Nov 6
Full
Nov 14
Last Quarter

Today's Extremes

State Highs State Lows

Community

WunderPhotos

Upload Photos

1,763,548 photos uploaded!

WunderBlogs® & News

By Dr. Jeff Masters
Director of Meteorology, Weather Underground
By Kari Strenfel
Meteorologist, Weather Underground
By Christopher C. Burt
Weather Historian, Weather Underground
October 20, 2014
October 20, 2014
October 20, 2014

Nearby

Snow Depth

Station Depth Elevation
Leavitt Lake 0 in 9400 ft
Sonora Pass 0 in 8800 ft
Leavitt Meadows 0 in 7200 ft
Monitor Pass 0 in 8350 ft
Hagan's Meadow 0 in 8000 ft

Earthquake Activity

City Distance Mag. Time & Date
Lone Pine, California 137 miles 2.6 5:26 AM PDT
2014-10-19
Minimum magnitude displayed is 2.5.

Coastal Water Temperatures

Place Temperature
Santa Monica Pier 71.1 °F
Los Angeles, CA 70.0 °F
La Jolla, CA 71.1 °F

Nearby Weather Stations